Time;durP1;ratioP1;P1;durP2;ratioP2;P2;SDS_P1;SDS_P2;PMS_P1;PMS_P2;Temp;Humidity;BMP_temperature;BMP_pressure;BME280_temperature;BME280_humidity;BME280_pressure;Samples;Min_cycle;Max_cycle;Signal;HPM_P1;HPM_P2
2022/08/11 00:01:14;;;;;;;1.73;1.67;;;;;;;20.20;100.00;151115.66;5112460;28;20211;-62
2022/08/11 00:03:47;;;;;;;2.83;1.73;;;;;;;20.14;100.00;151100.41;5112814;28;20218;-63
2022/08/11 00:06:15;;;;;;;2.20;2.10;;;;;;;20.21;100.00;151118.22;5112457;28;20187;-63
2022/08/11 00:08:44;;;;;;;2.03;1.93;;;;;;;20.14;100.00;151100.41;5112291;28;20191;-63
2022/08/11 00:11:15;;;;;;;2.30;2.20;;;;;;;20.07;100.00;151082.59;5112356;28;20188;-63
2022/08/11 00:13:45;;;;;;;2.10;2.00;;;;;;;19.93;100.00;151048.19;5112093;28;20239;-64
2022/08/11 00:16:15;;;;;;;2.13;2.03;;;;;;;19.90;100.00;151039.31;5112532;28;20563;-62
2022/08/11 00:18:44;;;;;;;2.07;1.97;;;;;;;19.97;100.00;151057.09;5112286;28;20179;-62
2022/08/11 00:21:13;;;;;;;1.80;1.70;;;;;;;19.79;100.00;151012.53;5112528;28;20709;-63
2022/08/11 00:23:44;;;;;;;2.00;2.00;;;;;;;19.95;100.00;151053.28;5112440;28;20694;-63
2022/08/11 00:26:14;;;;;;;2.57;2.37;;;;;;;19.90;100.00;151039.31;5112548;28;20198;-67
2022/08/11 00:28:42;;;;;;;2.30;2.20;;;;;;;19.92;100.00;151044.38;5112165;28;20223;-62
2022/08/11 00:31:20;;;;;;;6.40;1.87;;;;;;;19.88;100.00;151034.19;5112020;28;20270;-64
2022/08/11 00:33:49;;;;;;;1.97;1.93;;;;;;;19.76;100.00;151004.91;5112407;28;20701;-63
2022/08/11 00:36:18;;;;;;;1.90;1.80;;;;;;;19.88;100.00;151034.19;5112048;28;20184;-62
2022/08/11 00:38:49;;;;;;;3.23;2.37;;;;;;;19.91;100.00;151041.81;5111475;28;20245;-63
2022/08/11 00:41:32;;;;;;;2.10;2.00;;;;;;;19.74;100.00;150998.53;5111906;28;20244;-65
2022/08/11 00:44:45;;;;;;;4.03;2.30;;;;;;;19.71;100.00;150990.91;5112247;28;20628;-65
2022/08/11 00:47:24;;;;;;;2.37;2.20;;;;;;;19.74;100.00;150998.53;5111988;28;20197;-63
2022/08/11 00:50:02;;;;;;;2.77;2.67;;;;;;;19.79;100.00;151011.28;5111871;28;20279;-62
2022/08/11 00:53:05;;;;;;;2.80;2.70;;;;;;;19.85;100.00;151026.56;5112004;28;20199;-62
2022/08/11 00:56:13;;;;;;;4.20;2.70;;;;;;;19.84;100.00;151025.28;5111874;28;20722;-62
2022/08/11 00:59:12;;;;;;;2.90;2.80;;;;;;;19.82;100.00;151018.88;5111867;28;20657;-62
2022/08/11 01:01:57;;;;;;;3.10;2.90;;;;;;;19.80;100.00;151015.09;5111740;28;20196;-63
2022/08/11 01:04:57;;;;;;;3.17;2.87;;;;;;;19.88;100.00;151034.19;5111675;28;20355;-64
2022/08/11 01:07:57;;;;;;;3.03;2.83;;;;;;;19.95;100.00;151052.00;5112124;28;20554;-62
2022/08/11 01:10:50;;;;;;;3.10;3.00;;;;;;;19.90;100.00;151039.31;5111958;28;20672;-62
2022/08/11 01:13:46;;;;;;;3.33;3.23;;;;;;;19.85;100.00;151026.56;5089952;28;20284;-62
2022/08/11 01:16:40;;;;;;;3.57;3.47;;;;;;;19.83;100.00;151021.44;5058098;28;20199;-63
2022/08/11 01:19:46;;;;;;;3.40;3.30;;;;;;;19.97;100.00;151057.09;5091583;28;20188;-63
2022/08/11 01:23:11;;;;;;;3.93;3.73;;;;;;;20.03;100.00;151073.63;5091367;28;20240;-62
2022/08/11 01:26:28;;;;;;;3.83;3.53;;;;;;;20.06;100.00;151080.03;5029236;28;20670;-64
2022/08/11 01:29:32;;;;;;;3.20;3.10;;;;;;;20.13;100.00;151097.84;5029053;28;20745;-62
2022/08/11 01:33:02;;;;;;;3.97;3.80;;;;;;;20.04;100.00;151074.91;5019182;28;20201;-63
2022/08/11 01:35:47;;;;;;;3.80;3.50;;;;;;;20.07;100.00;151083.81;5029009;28;20216;-62
2022/08/11 01:38:45;;;;;;;3.90;3.70;;;;;;;20.10;100.00;151090.22;5028944;28;20182;-63
2022/08/11 01:44:38;;;;;;;4.07;3.60;;;;;;;20.17;100.00;151106.75;5028188;28;20628;-63
2022/08/11 01:50:14;;;;;;;3.70;3.60;;;;;;;20.11;100.00;151092.78;5028281;28;20198;-62
2022/08/11 01:53:02;;;;;;;3.77;3.60;;;;;;;20.13;100.00;151096.56;5032335;28;20236;-63
2022/08/11 01:55:44;;;;;;;3.67;3.40;;;;;;;20.14;100.00;151100.41;5047020;28;20235;-62
2022/08/11 01:58:23;;;;;;;4.20;3.90;;;;;;;20.02;100.00;151069.84;5094895;28;20565;-62
2022/08/11 02:00:59;;;;;;;4.17;3.90;;;;;;;20.03;100.00;151072.34;5094775;28;20562;-62
2022/08/11 02:03:36;;;;;;;4.83;4.60;;;;;;;19.96;100.00;151054.56;5094829;28;20188;-63
2022/08/11 02:09:04;;;;;;;4.37;4.10;;;;;;;20.04;100.00;151074.91;5094070;28;20202;-63
2022/08/11 02:11:32;;;;;;;5.25;4.68;;;;;;;19.96;100.00;151055.81;5094232;28;20184;-62
2022/08/11 02:14:10;;;;;;;5.27;4.77;;;;;;;19.98;100.00;151060.94;5107824;28;20235;-63
2022/08/11 02:16:49;;;;;;;5.60;4.47;;;;;;;19.96;100.00;151055.81;5114885;28;20179;-62
2022/08/11 02:25:08;;;;;;;4.73;4.53;;;;;;;20.03;100.00;151073.63;5114363;28;20320;-62
2022/08/11 02:27:41;;;;;;;5.13;4.93;;;;;;;20.10;100.00;151090.22;5114619;28;20187;-62
2022/08/11 02:30:11;;;;;;;5.53;5.23;;;;;;;20.06;100.00;151081.31;5114317;28;20184;-64
2022/08/11 02:35:44;;;;;;;4.90;4.70;;;;;;;20.09;100.00;151087.66;5114418;28;20175;-63
2022/08/11 02:38:24;;;;;;;5.25;4.95;;;;;;;20.14;100.00;151099.13;5114358;28;20535;-63
2022/08/11 02:41:01;;;;;;;6.70;5.97;;;;;;;20.09;100.00;151087.66;5114372;28;20641;-63
2022/08/11 02:43:37;;;;;;;4.95;4.65;;;;;;;20.09;100.00;151087.66;5114332;28;20175;-63
2022/08/11 02:46:20;;;;;;;5.33;5.03;;;;;;;19.98;100.00;151059.66;5113973;28;20236;-63
2022/08/11 02:51:55;;;;;;;4.50;4.30;;;;;;;20.01;100.00;151068.56;5114060;28;20268;-64
2022/08/11 02:54:27;;;;;;;4.70;4.50;;;;;;;20.07;100.00;151082.59;5113692;28;20199;-63
2022/08/11 02:57:02;;;;;;;4.10;4.00;;;;;;;20.05;100.00;151077.47;5113707;28;20183;-63
2022/08/11 02:59:52;;;;;;;4.90;4.70;;;;;;;19.92;100.00;151045.66;5113705;28;20257;-62
2022/08/11 03:02:39;;;;;;;4.80;4.60;;;;;;;19.86;100.00;151030.34;5096562;28;20417;-62
2022/08/11 03:05:19;;;;;;;4.22;3.83;;;;;;;19.89;100.00;151036.75;5113886;28;20631;-62
2022/08/11 03:07:58;;;;;;;4.30;3.77;;;;;;;20.02;100.00;151069.84;5096931;28;20187;-63
2022/08/11 03:10:34;;;;;;;3.63;3.53;;;;;;;20.00;100.00;151064.72;5113740;28;20530;-62
2022/08/11 03:19:09;;;;;;;3.20;3.03;;;;;;;20.18;100.00;151109.31;5113688;28;20179;-64
2022/08/11 03:21:46;;;;;;;3.73;3.43;;;;;;;20.02;100.00;151071.13;5113454;28;20183;-63
2022/08/11 03:24:21;;;;;;;3.77;3.63;;;;;;;20.19;100.00;151113.13;5113493;28;20695;-63
2022/08/11 03:27:05;;;;;;;3.73;3.43;;;;;;;20.12;100.00;151095.28;5113247;28;20698;-63
2022/08/11 03:29:40;;;;;;;3.60;3.30;;;;;;;20.04;100.00;151076.19;5113473;28;20172;-63
2022/08/11 03:32:19;;;;;;;3.95;3.75;;;;;;;20.14;100.00;151099.13;5113667;28;20274;-62
2022/08/11 03:34:49;;;;;;;3.60;3.47;;;;;;;19.90;100.00;151039.31;5113371;28;20186;-63
2022/08/11 03:37:49;;;;;;;4.20;3.53;;;;;;;20.03;100.00;151072.34;5113026;28;20183;-63
2022/08/11 03:43:51;;;;;;;3.70;3.50;;;;;;;20.17;100.00;151108.03;5113089;28;20229;-62
2022/08/11 03:46:32;;;;;;;3.58;3.38;;;;;;;20.29;100.00;151138.63;5112918;28;20274;-62
2022/08/11 03:49:14;;;;;;;4.80;3.63;;;;;;;20.30;100.00;151139.91;5113098;28;20645;-62
2022/08/11 03:51:53;;;;;;;3.67;3.57;;;;;;;20.50;100.00;151192.09;5113105;28;20247;-63
2022/08/11 03:54:29;;;;;;;3.77;3.57;;;;;;;20.56;100.00;151206.13;5112943;28;20311;-62
2022/08/11 03:57:37;;;;;;;3.47;3.37;;;;;;;20.34;100.00;151151.38;5112890;28;20183;-63
2022/08/11 04:00:19;;;;;;;3.30;3.20;;;;;;;20.34;100.00;151150.09;5112624;28;20260;-63
2022/08/11 04:03:46;;;;;;;3.50;3.30;;;;;;;20.30;100.00;151141.19;5112855;28;20228;-63
2022/08/11 04:06:54;;;;;;;4.32;3.78;;;;;;;20.55;100.00;151202.28;5029933;28;20186;-63
2022/08/11 04:10:00;;;;;;;4.60;3.93;;;;;;;20.52;100.00;151197.22;5112618;28;20179;-63
2022/08/11 04:13:12;;;;;;;3.95;3.65;;;;;;;20.62;100.00;151220.16;5111890;28;20179;-63
2022/08/11 04:16:07;;;;;;;6.70;4.00;;;;;;;20.33;100.00;151148.81;5112385;28;20253;-62
2022/08/11 04:19:16;;;;;;;4.27;3.90;;;;;;;20.54;100.00;151199.78;5112570;28;20179;-63
2022/08/11 04:22:19;;;;;;;5.10;4.67;;;;;;;20.59;100.00;151213.75;5102283;28;20205;-62
2022/08/11 04:25:06;;;;;;;5.20;4.40;;;;;;;20.84;100.00;151276.16;5112550;28;20211;-63
2022/08/11 04:28:02;;;;;;;4.57;4.28;;;;;;;20.82;100.00;151271.09;5112090;28;20187;-62
2022/08/11 04:30:42;;;;;;;5.75;5.18;;;;;;;20.93;100.00;151300.38;5112451;28;20188;-62
2022/08/11 04:33:53;;;;;;;5.95;5.32;;;;;;;21.05;100.00;151329.66;5112292;28;20203;-62
2022/08/11 04:39:56;;;;;;;5.10;4.90;;;;;;;20.79;100.00;151263.47;5112244;28;20262;-62
2022/08/11 04:45:54;;;;;;;5.22;4.90;;;;;;;20.58;100.00;151209.97;5112176;28;20290;-62
2022/08/11 05:01:42;;;;;;;5.85;5.45;;;;;;;20.92;100.00;151297.81;5111851;28;20171;-63
2022/08/11 05:07:44;;;;;;;5.40;4.93;;;;;;;21.39;100.00;151415.09;5111930;28;20186;-62
2022/08/11 05:10:25;;;;;;;8.68;4.60;;;;;;;21.67;100.00;151486.47;5111288;28;20271;-64
2022/08/11 05:12:55;;;;;;;5.35;4.88;;;;;;;21.89;100.00;151541.31;5111674;28;20657;-62
2022/08/11 05:35:27;;;;;;;5.15;3.47;;;;;;;23.93;100.00;152056.75;5116063;28;20320;-63
2022/08/11 05:57:32;;;;;;;3.45;3.20;;;;;;;28.51;100.00;153214.13;5116346;28;20244;-62
2022/08/11 06:00:03;;;;;;;3.20;3.08;;;;;;;29.00;100.00;153338.38;5115527;28;20272;-64
2022/08/11 06:02:40;;;;;;;3.40;3.10;;;;;;;28.98;100.00;153333.25;5116254;28;20195;-63
2022/08/11 06:05:08;;;;;;;5.70;4.60;;;;;;;28.87;100.00;153305.06;5114770;28;20187;-59
2022/08/11 06:07:35;;;;;;;4.57;3.40;;;;;;;27.51;100.00;152961.91;5115395;28;20188;-62
2022/08/11 06:10:03;;;;;;;4.38;3.72;;;;;;;27.17;100.00;152876.16;5115287;28;20282;-63
2022/08/11 06:12:35;;;;;;;3.70;3.50;;;;;;;27.13;100.00;152865.94;5114918;28;20229;-62
2022/08/11 06:15:06;;;;;;;3.70;3.38;;;;;;;27.48;100.00;152952.97;5114607;28;20214;-60
2022/08/11 06:17:43;;;;;;;5.45;4.15;;;;;;;28.14;100.00;153121.94;5096417;28;20655;-61
2022/08/11 06:20:11;;;;;;;3.53;3.33;;;;;;;28.38;100.00;153182.13;5114519;28;20186;-61
2022/08/11 06:22:40;;;;;;;4.07;3.08;;;;;;;28.39;100.00;153183.41;5114471;28;20189;-65
2022/08/11 06:25:09;;;;;;;2.90;2.72;;;;;;;28.47;100.00;153205.19;5115454;28;20180;-65
2022/08/11 06:27:38;;;;;;;3.90;2.85;;;;;;;28.49;100.00;153210.25;5114682;28;20634;-64
2022/08/11 06:30:12;;;;;;;3.30;2.90;;;;;;;28.44;100.00;153196.16;5115107;28;20183;-64
2022/08/11 06:32:42;;;;;;;3.38;3.28;;;;;;;28.27;100.00;153153.94;5114839;28;20187;-64
2022/08/11 06:35:19;;;;;;;3.15;3.00;;;;;;;28.25;100.00;153147.53;5114912;28;20239;-64
2022/08/11 06:38:02;;;;;;;3.13;2.50;;;;;;;28.61;100.00;153241.00;5096188;28;20191;-64
2022/08/11 06:40:38;;;;;;;3.95;2.55;;;;;;;28.79;100.00;153284.56;5114605;28;20207;-62
2022/08/11 06:43:15;;;;;;;5.18;2.67;;;;;;;29.07;99.29;153355.03;5111746;28;20581;-60
2022/08/11 06:45:53;;;;;;;2.95;2.70;;;;;;;28.89;96.32;153310.22;5109823;28;20187;-61
2022/08/11 06:48:23;;;;;;;2.65;2.08;;;;;;;29.38;93.26;153435.75;5114098;28;20583;-64
2022/08/11 06:53:39;;;;;;;2.70;2.60;;;;;;;29.85;92.23;153554.91;5114757;28;20273;-63
2022/08/11 07:01:48;;;;;;;4.53;2.47;;;;;;;29.54;89.88;153474.16;5114291;28;20311;-64
2022/08/11 07:04:21;;;;;;;2.38;2.22;;;;;;;29.87;89.99;153558.81;5114686;28;20647;-59
2022/08/11 07:15:58;;;;;;;4.45;2.33;;;;;;;29.45;88.51;153453.69;5113529;28;20174;-65
2022/08/11 07:29:51;;;;;;;2.53;2.30;;;;;;;29.66;85.82;153504.94;5114321;28;20502;-65
2022/08/11 07:32:26;;;;;;;3.63;2.33;;;;;;;29.82;85.35;153545.94;5113362;28;20253;-64
2022/08/11 07:34:59;;;;;;;2.90;2.80;;;;;;;30.23;82.47;153651.06;5113595;28;20293;-59
2022/08/11 07:37:32;;;;;;;2.65;2.53;;;;;;;30.23;78.72;153651.06;5112476;28;20195;-59
2022/08/11 07:40:00;;;;;;;2.30;2.20;;;;;;;30.27;78.39;153661.31;5110721;28;20604;-64
2022/08/11 07:42:34;;;;;;;2.78;2.58;;;;;;;30.38;81.78;153689.50;5108864;28;20282;-64
2022/08/11 07:53:24;;;;;;;2.30;2.20;;;;;;;30.79;75.71;153793.41;5112804;28;20171;-64
2022/08/11 07:55:54;;;;;;;2.53;2.25;;;;;;;30.74;75.82;153779.28;5112962;28;20183;-63
2022/08/11 08:17:57;;;;;;;2.30;2.20;;;;;;;31.62;66.53;154003.78;5112808;28;20617;-64
2022/08/11 08:20:27;;;;;;;8.50;2.40;;;;;;;32.03;65.27;154106.44;5112700;28;20244;-64
2022/08/11 08:22:58;;;;;;;3.42;2.20;;;;;;;32.26;63.06;154165.47;5112174;28;20183;-64
2022/08/11 08:25:27;;;;;;;2.95;1.85;;;;;;;32.44;61.22;154210.41;5112697;28;20184;-64
2022/08/11 08:27:55;;;;;;;1.80;1.70;;;;;;;32.49;59.67;154224.53;5112504;28;20266;-63
2022/08/11 08:33:07;;;;;;;2.15;2.05;;;;;;;32.04;62.23;154109.03;5112723;28;20183;-59
2022/08/11 08:35:36;;;;;;;2.85;2.65;;;;;;;32.27;63.40;154166.78;5112563;28;20203;-59
2022/08/11 08:38:05;;;;;;;1.70;1.60;;;;;;;32.49;60.46;154223.25;5113293;28;20187;-64
2022/08/11 08:40:32;;;;;;;3.45;2.13;;;;;;;32.66;59.04;154265.66;5113415;28;20256;-62
2022/08/11 08:43:04;;;;;;;3.35;2.00;;;;;;;32.72;59.52;154281.06;5112896;28;20183;-64
2022/08/11 08:45:35;;;;;;;3.63;1.80;;;;;;;32.69;60.71;154274.63;5112557;28;20183;-60
2022/08/11 08:48:05;;;;;;;22.40;19.90;;;;;;;32.40;59.36;154200.16;5112854;28;20187;-60
2022/08/11 08:53:27;;;;;;;3.38;1.80;;;;;;;31.96;59.72;154088.44;5112292;28;20225;-60
2022/08/11 08:55:57;;;;;;;1.60;1.60;;;;;;;31.96;60.20;154088.44;5113243;28;20206;-64
2022/08/11 08:58:25;;;;;;;6.07;1.90;;;;;;;31.83;58.51;154056.38;5113285;28;20526;-63
2022/08/11 09:00:54;;;;;;;2.25;1.30;;;;;;;31.33;59.36;153929.34;5116432;28;20274;-64
2022/08/11 09:03:23;;;;;;;4.10;2.40;;;;;;;31.64;61.51;154008.94;5116600;28;20232;-65
2022/08/11 09:05:53;;;;;;;4.35;2.10;;;;;;;31.73;60.89;154030.75;5117274;28;20221;-63
2022/08/11 09:08:23;;;;;;;3.08;2.38;;;;;;;32.29;59.29;154171.94;5119231;28;20191;-63
2022/08/11 09:13:34;;;;;;;4.07;2.10;;;;;;;32.01;58.28;154102.56;5117547;28;20227;-64
2022/08/11 09:16:01;;;;;;;2.42;2.22;;;;;;;32.14;57.31;154134.69;5117368;28;20266;-64
2022/08/11 09:18:29;;;;;;;2.88;2.35;;;;;;;32.39;56.54;154197.56;5117343;28;20270;-64
2022/08/11 09:20:57;;;;;;;2.65;2.05;;;;;;;32.39;55.96;154197.56;5116042;28;20328;-64
2022/08/11 09:28:56;;;;;;;3.70;2.30;;;;;;;33.22;53.06;154408.19;5116551;28;20672;-63
2022/08/11 09:31:23;;;;;;;4.55;2.78;;;;;;;33.32;53.97;154435.13;5116459;28;20199;-64
2022/08/11 09:33:54;;;;;;;2.15;2.05;;;;;;;33.43;53.49;154462.13;5115746;28;20191;-64
2022/08/11 09:41:52;;;;;;;3.15;1.98;;;;;;;32.91;55.55;154329.81;5116211;28;20170;-64
2022/08/11 09:47:07;;;;;;;3.60;2.00;;;;;;;33.00;54.22;154352.94;5115890;28;20190;-64
2022/08/11 09:49:34;;;;;;;3.78;2.08;;;;;;;33.22;53.01;154408.19;5115415;28;20188;-64
2022/08/11 09:52:08;;;;;;;2.35;1.70;;;;;;;32.08;54.60;154120.56;5115958;28;20620;-64
2022/08/11 09:54:37;;;;;;;2.78;2.08;;;;;;;32.25;54.56;154161.66;5116215;28;20203;-64
2022/08/11 09:59:53;;;;;;;13.38;12.25;;;;;;;32.82;54.65;154308.00;5117780;28;20217;-65
2022/08/11 10:02:26;;;;;;;4.25;4.05;;;;;;;32.91;54.22;154331.09;5118616;28;20518;-64
2022/08/11 10:07:00;;;;;;;2.05;1.90;;;;;;;33.06;52.27;154368.31;5117211;28;20270;-64
2022/08/11 10:07:49;;;;;;;5.53;2.47;;;;;;;33.01;52.75;154356.81;5116911;28;20196;-65
2022/08/11 10:10:21;;;;;;;2.55;2.35;;;;;;;32.81;54.23;154305.41;5116106;28;20184;-64
2022/08/11 10:12:52;;;;;;;4.63;2.08;;;;;;;32.74;54.56;154286.19;5115813;28;20227;-64
2022/08/11 10:15:34;;;;;;;6.38;2.58;;;;;;;33.06;53.30;154369.59;5117080;28;20660;-63
2022/08/11 10:20:53;;;;;;;4.20;3.35;;;;;;;33.29;52.95;154427.44;5115034;28;20175;-61
2022/08/11 10:28:53;;;;;;;5.82;2.33;;;;;;;32.91;53.14;154329.81;5102983;28;20210;-64
2022/08/11 10:34:07;;;;;;;6.45;2.70;;;;;;;32.82;54.21;154306.72;5099819;28;20198;-64
2022/08/11 10:36:41;;;;;;;2.60;2.40;;;;;;;32.63;54.38;154257.97;5116616;28;20195;-64
2022/08/11 10:39:16;;;;;;;5.22;2.25;;;;;;;32.98;53.35;154349.06;5115311;28;20190;-64
2022/08/11 10:44:36;;;;;;;10.82;3.03;;;;;;;32.96;55.05;154343.97;5114820;28;20274;-66
2022/08/11 10:51:11;;;;;;;6.25;2.10;;;;;;;32.81;53.56;154304.13;5114999;28;20619;-63
2022/08/11 11:00:57;;;;;;;4.10;1.73;;;;;;;32.05;56.81;154112.84;5078306;28;20187;-66
2022/08/11 11:03:26;;;;;;;8.88;1.80;;;;;;;32.10;56.25;154125.72;5086683;28;20524;-64
2022/08/11 11:05:57;;;;;;;4.07;1.92;;;;;;;32.27;55.86;154168.06;5096064;28;20240;-64
2022/08/11 11:11:14;;;;;;;5.57;2.53;;;;;;;31.93;57.16;154082.06;5113877;28;20688;-63
2022/08/11 11:19:23;;;;;;;6.18;2.08;;;;;;;31.71;57.84;154026.88;5107635;28;20191;-64
2022/08/11 11:22:36;;;;;;;4.35;2.08;;;;;;;31.59;58.47;153996.09;5095097;28;20666;-63
2022/08/11 11:24:56;;;;;;;2.22;2.10;;;;;;;31.51;58.90;153975.53;5092791;28;20211;-64
2022/08/11 11:27:29;;;;;;;3.92;2.08;;;;;;;31.41;60.11;153948.59;5093042;28;20219;-64
2022/08/11 11:30:05;;;;;;;8.37;4.50;;;;;;;31.69;59.46;154021.78;5092507;28;20443;-62
2022/08/11 11:32:41;;;;;;;2.10;1.98;;;;;;;31.74;58.22;154033.34;5092973;28;20183;-64
2022/08/11 11:35:20;;;;;;;2.90;1.92;;;;;;;31.52;57.95;153978.13;5093148;28;20290;-65
2022/08/11 11:37:50;;;;;;;2.45;1.90;;;;;;;31.56;58.99;153987.13;5093046;28;20267;-64
2022/08/11 11:40:20;;;;;;;1.92;1.83;;;;;;;31.55;58.32;153984.56;5092669;28;20188;-65
2022/08/11 11:42:50;;;;;;;4.80;1.83;;;;;;;31.53;58.35;153979.41;5093348;28;20184;-64
2022/08/11 11:45:20;;;;;;;2.22;2.13;;;;;;;31.27;56.83;153914.00;5092779;28;20216;-65
2022/08/11 11:47:51;;;;;;;3.88;1.98;;;;;;;31.18;58.56;153890.91;5092897;28;20543;-64
2022/08/11 11:50:24;;;;;;;2.05;1.95;;;;;;;31.31;59.00;153922.97;5092958;28;20184;-64
2022/08/11 11:52:54;;;;;;;5.10;2.25;;;;;;;31.64;58.59;154007.66;5093043;28;20184;-64
2022/08/11 11:55:23;;;;;;;3.45;2.00;;;;;;;31.70;58.02;154024.31;5092157;28;20204;-64
2022/08/11 12:03:36;;;;;;;7.63;2.28;;;;;;;31.85;56.25;154060.25;5050033;28;20276;-63
2022/08/11 12:06:04;;;;;;;5.25;2.33;;;;;;;31.87;56.52;154066.63;5049484;28;20197;-64
2022/08/11 12:08:35;;;;;;;4.68;2.30;;;;;;;31.89;55.43;154070.50;5068882;28;20208;-64
2022/08/11 12:13:51;;;;;;;4.32;2.08;;;;;;;31.62;57.06;154002.50;5077007;28;20226;-63
2022/08/11 12:16:22;;;;;;;2.00;1.90;;;;;;;31.40;57.15;153947.34;5091839;28;20208;-64
2022/08/11 12:18:52;;;;;;;1.85;1.75;;;;;;;31.33;57.47;153928.06;5091946;28;20271;-63
2022/08/11 12:21:19;;;;;;;4.70;2.05;;;;;;;31.34;60.22;153930.66;5074219;28;20184;-64
2022/08/11 12:29:20;;;;;;;2.80;2.40;;;;;;;31.73;56.79;154030.75;5091842;28;20237;-60
2022/08/11 12:31:49;;;;;;;25.67;17.67;;;;;;;31.73;57.39;154030.75;5091536;28;20191;-57
2022/08/11 12:34:17;;;;;;;3.58;2.20;;;;;;;31.68;56.57;154017.91;5091061;28;20378;-63
2022/08/11 12:36:49;;;;;;;2.13;2.03;;;;;;;31.59;57.11;153994.81;5091766;28;20220;-64
2022/08/11 12:45:26;;;;;;;2.38;2.10;;;;;;;31.67;57.21;154016.63;5091786;28;20180;-64
2022/08/11 12:53:26;;;;;;;2.50;2.10;;;;;;;31.45;56.65;153960.13;5091395;28;20305;-63
2022/08/11 12:58:41;;;;;;;2.00;1.88;;;;;;;31.06;57.48;153861.44;5092461;28;20260;-64
2022/08/11 13:06:41;;;;;;;2.58;2.30;;;;;;;31.14;58.39;153881.94;5076245;28;20167;-65
2022/08/11 13:09:11;;;;;;;2.42;2.33;;;;;;;31.28;58.95;153917.81;5091250;28;20230;-64
2022/08/11 13:14:25;;;;;;;3.45;2.28;;;;;;;31.34;58.57;153931.94;5091467;28;20307;-64
2022/08/11 13:19:38;;;;;;;2.72;2.53;;;;;;;31.03;57.75;153853.69;5091417;28;20264;-63
2022/08/11 13:22:07;;;;;;;3.65;2.95;;;;;;;31.11;58.18;153874.22;5091353;28;20186;-64
2022/08/11 13:24:35;;;;;;;2.35;2.20;;;;;;;31.06;57.47;153861.44;5091373;28;20192;-64
2022/08/11 13:27:03;;;;;;;4.60;2.30;;;;;;;30.90;58.40;153819.03;5091375;28;20578;-63
2022/08/11 13:29:30;;;;;;;4.30;2.70;;;;;;;31.06;58.02;153861.44;5092170;28;20192;-64
2022/08/11 13:31:59;;;;;;;13.15;9.00;;;;;;;31.22;58.46;153902.44;5091179;28;20184;-61
2022/08/11 13:34:29;;;;;;;6.18;4.43;;;;;;;31.14;58.12;153880.66;5091481;28;20285;-64
2022/08/11 13:37:01;;;;;;;5.15;2.60;;;;;;;31.06;57.53;153861.44;5091249;28;20215;-60
2022/08/11 13:39:31;;;;;;;3.63;3.28;;;;;;;31.04;58.16;153856.28;5091056;28;20216;-59
2022/08/11 13:42:01;;;;;;;7.50;6.90;;;;;;;31.08;57.79;153865.25;5090986;28;20188;-59
2022/08/11 13:44:30;;;;;;;5.28;4.28;;;;;;;31.14;58.08;153881.94;5091097;28;20192;-60
2022/08/11 13:47:01;;;;;;;6.38;4.78;;;;;;;31.07;58.13;153863.94;5076371;28;20203;-58
2022/08/11 13:49:29;;;;;;;7.75;4.82;;;;;;;31.20;58.35;153897.28;5095042;28;20619;-61
2022/08/11 13:51:56;;;;;;;13.60;5.65;;;;;;;31.13;59.25;153878.06;5094635;28;20645;-60
2022/08/11 13:54:27;;;;;;;3.78;3.08;;;;;;;31.18;59.24;153890.91;5094688;28;20191;-64
2022/08/11 13:56:57;;;;;;;4.38;2.63;;;;;;;31.18;59.03;153890.91;5094761;28;20208;-63
2022/08/11 13:59:25;;;;;;;14.82;6.68;;;;;;;31.07;59.57;153863.94;5094478;28;20199;-63
2022/08/11 14:01:55;;;;;;;14.77;5.35;;;;;;;31.22;60.30;153901.16;5094569;28;20180;-64
2022/08/11 14:04:28;;;;;;;3.47;2.92;;;;;;;31.12;59.33;153875.50;5094882;28;20681;-64
2022/08/11 14:06:59;;;;;;;2.95;2.75;;;;;;;31.49;59.59;153969.09;5094660;28;20686;-65
2022/08/11 14:09:32;;;;;;;6.60;4.53;;;;;;;31.63;58.23;154006.38;5094530;28;20206;-64
2022/08/11 14:14:53;;;;;;;2.30;2.30;;;;;;;31.27;57.36;153915.22;5094366;28;20231;-64
2022/08/11 14:17:21;;;;;;;2.30;2.10;;;;;;;31.07;57.88;153863.94;5094769;28;20561;-64
2022/08/11 14:19:52;;;;;;;2.90;2.67;;;;;;;31.03;58.98;153853.69;5094883;28;20184;-64
2022/08/11 14:22:21;;;;;;;3.67;2.17;;;;;;;30.84;58.17;153806.22;5094716;28;20199;-64
2022/08/11 14:24:49;;;;;;;3.40;2.40;;;;;;;30.63;60.42;153752.41;5094503;28;20192;-65
2022/08/11 14:27:18;;;;;;;2.97;2.78;;;;;;;30.74;60.18;153779.28;5094959;28;20215;-64
2022/08/11 14:29:46;;;;;;;3.78;2.80;;;;;;;30.77;60.23;153786.97;5093655;28;20290;-64
2022/08/11 14:32:16;;;;;;;2.78;2.53;;;;;;;30.76;59.80;153784.44;5094404;28;20200;-63
2022/08/11 14:34:44;;;;;;;2.63;2.50;;;;;;;30.83;58.69;153803.66;5094279;28;20181;-64
2022/08/11 14:37:14;;;;;;;6.20;2.83;;;;;;;30.82;59.42;153799.78;5094118;28;20261;-63
2022/08/11 14:39:44;;;;;;;2.97;2.78;;;;;;;30.80;59.38;153794.69;5094423;28;20277;-62
2022/08/11 14:48:03;;;;;;;2.65;2.20;;;;;;;30.45;61.46;153704.94;5117637;28;20221;-64
2022/08/11 14:50:32;;;;;;;5.80;2.50;;;;;;;30.50;61.36;153717.78;5113942;28;20183;-63
2022/08/11 14:53:03;;;;;;;4.85;2.75;;;;;;;30.46;61.79;153707.50;5114322;28;20195;-63
2022/08/11 14:58:26;;;;;;;5.03;2.40;;;;;;;30.44;63.26;153702.31;5113608;28;20297;-61
2022/08/11 15:00:55;;;;;;;4.72;2.40;;;;;;;30.40;62.28;153693.34;5114269;28;20188;-61
2022/08/11 15:03:23;;;;;;;4.22;2.20;;;;;;;30.45;62.46;153704.94;5114217;28;20190;-62
2022/08/11 15:05:52;;;;;;;3.17;2.30;;;;;;;30.47;62.11;153711.34;5113551;28;20179;-62
2022/08/11 15:08:53;;;;;;;3.35;2.88;;;;;;;30.48;62.60;153712.63;5113855;28;20606;-62
2022/08/11 15:12:07;;;;;;;8.52;3.50;;;;;;;30.53;63.53;153726.72;5113371;28;20198;-61
2022/08/11 15:14:00;;;;;;;5.53;2.80;;;;;;;30.54;63.44;153728.03;5113009;28;20313;-61
2022/08/11 15:19:14;;;;;;;7.03;2.83;;;;;;;30.63;62.69;153751.09;5113551;28;20178;-62
2022/08/11 15:24:32;;;;;;;5.03;2.42;;;;;;;30.51;63.59;153720.34;5113125;28;20691;-62
2022/08/11 15:38:14;;;;;;;3.72;2.28;;;;;;;30.50;62.21;153717.78;5113023;28;20182;-63
2022/08/11 15:46:23;;;;;;;2.55;2.22;;;;;;;30.48;61.67;153712.63;5097848;28;20231;-62
2022/08/11 15:48:56;;;;;;;2.42;2.22;;;;;;;30.38;63.46;153689.50;5113262;28;20592;-62
2022/08/11 15:51:33;;;;;;;1.98;1.85;;;;;;;30.26;63.49;153657.44;5112644;28;20188;-61
2022/08/11 15:54:06;;;;;;;2.40;2.30;;;;;;;30.23;64.67;153649.78;5112855;28;20514;-62
2022/08/11 15:56:38;;;;;;;2.40;2.30;;;;;;;30.30;64.73;153667.69;5112508;28;20199;-61
2022/08/11 16:04:54;;;;;;;2.47;2.28;;;;;;;30.07;66.03;153608.78;5029972;28;20600;-61
2022/08/11 16:07:25;;;;;;;4.28;2.17;;;;;;;29.82;65.42;153545.94;5029861;28;20229;-61
2022/08/11 16:09:57;;;;;;;2.13;2.03;;;;;;;29.78;65.71;153535.69;5068383;28;20746;-62
2022/08/11 16:12:28;;;;;;;2.30;2.20;;;;;;;29.81;66.87;153543.38;5112537;28;20658;-60
2022/08/11 16:17:45;;;;;;;2.35;2.25;;;;;;;29.76;68.64;153530.56;5112467;28;20179;-62
2022/08/11 16:20:14;;;;;;;2.13;2.03;;;;;;;29.69;68.58;153512.63;5112307;28;20198;-61
2022/08/11 16:22:42;;;;;;;2.30;2.20;;;;;;;29.65;69.68;153502.38;5112640;28;20180;-61
2022/08/11 16:25:12;;;;;;;2.92;2.83;;;;;;;29.64;69.26;153501.09;5112446;28;20706;-61
2022/08/11 16:27:43;;;;;;;2.40;2.30;;;;;;;29.52;69.29;153469.06;5112157;28;20179;-61
2022/08/11 16:30:12;;;;;;;2.45;2.35;;;;;;;29.49;69.23;153463.91;5112391;28;20676;-62
2022/08/11 16:32:43;;;;;;;2.50;2.30;;;;;;;29.44;69.98;153451.16;5112820;28;20609;-62
2022/08/11 16:40:51;;;;;;;3.13;2.92;;;;;;;29.40;71.99;153439.63;5112627;28;20206;-61
2022/08/11 16:48:53;;;;;;;2.55;2.45;;;;;;;29.09;73.68;153361.41;5112593;28;20178;-61
2022/08/11 16:51:23;;;;;;;3.38;3.20;;;;;;;29.00;74.03;153338.38;5111803;28;20184;-61
2022/08/11 16:53:50;;;;;;;3.55;2.75;;;;;;;28.88;75.52;153308.91;5112202;28;20179;-61
2022/08/11 16:56:21;;;;;;;2.63;2.53;;;;;;;28.87;75.51;153306.34;5112216;28;20665;-61
2022/08/11 17:01:38;;;;;;;5.32;2.83;;;;;;;28.59;76.30;153234.59;5112241;28;20663;-62
2022/08/11 17:18:38;;;;;;;2.90;2.70;;;;;;;28.20;81.94;153136.03;5111828;28;20198;-61